sensor_id;sensor_type;location;lat;lon;timestamp;pressure;altitude;pressure_sealevel;temperature;humidity
48614;BME280;34408;51.426;5.444;2022-09-29T00:00:34;99912.38;;;12.51;61.27
48614;BME280;34408;51.426;5.444;2022-09-29T00:03:02;99910.75;;;12.50;61.36
48614;BME280;34408;51.426;5.444;2022-09-29T00:05:30;99906.41;;;12.49;61.45
48614;BME280;34408;51.426;5.444;2022-09-29T00:07:58;99907.47;;;12.48;61.18
48614;BME280;34408;51.426;5.444;2022-09-29T00:10:26;99906.94;;;12.46;61.27
48614;BME280;34408;51.426;5.444;2022-09-29T00:12:54;99913.13;;;12.47;61.50
48614;BME280;34408;51.426;5.444;2022-09-29T00:15:21;99913.38;;;12.45;61.36
48614;BME280;34408;51.426;5.444;2022-09-29T00:17:51;99913.66;;;12.44;61.24
48614;BME280;34408;51.426;5.444;2022-09-29T00:20:39;99912.03;;;12.43;61.07
48614;BME280;34408;51.426;5.444;2022-09-29T00:23:06;99908.50;;;12.42;61.38
48614;BME280;34408;51.426;5.444;2022-09-29T00:25:34;99912.28;;;12.41;61.18
48614;BME280;34408;51.426;5.444;2022-09-29T00:28:02;99904.44;;;12.39;61.12
48614;BME280;34408;51.426;5.444;2022-09-29T00:30:30;99900.94;;;12.39;61.27
48614;BME280;34408;51.426;5.444;2022-09-29T00:32:59;99907.41;;;12.38;60.83
48614;BME280;34408;51.426;5.444;2022-09-29T00:35:27;99911.41;;;12.35;60.89
48614;BME280;34408;51.426;5.444;2022-09-29T00:37:54;99909.78;;;12.34;60.89
48614;BME280;34408;51.426;5.444;2022-09-29T00:40:22;99914.38;;;12.34;61.14
48614;BME280;34408;51.426;5.444;2022-09-29T00:42:50;99906.53;;;12.32;61.06
48614;BME280;34408;51.426;5.444;2022-09-29T00:45:20;99904.91;;;12.31;60.94
48614;BME280;34408;51.426;5.444;2022-09-29T00:47:54;99907.63;;;12.31;60.96
48614;BME280;34408;51.426;5.444;2022-09-29T00:50:38;99908.69;;;12.30;60.83
48614;BME280;34408;51.426;5.444;2022-09-29T00:53:07;99907.06;;;12.29;60.66
48614;BME280;34408;51.426;5.444;2022-09-29T00:55:43;99908.38;;;12.27;60.91
48614;BME280;34408;51.426;5.444;2022-09-29T00:58:20;99899.22;;;12.28;60.58
48614;BME280;34408;51.426;5.444;2022-09-29T01:00:51;99903.25;;;12.25;60.57
48614;BME280;34408;51.426;5.444;2022-09-29T01:03:21;99904.31;;;12.24;60.59
48614;BME280;34408;51.426;5.444;2022-09-29T01:05:55;99883.22;;;12.16;60.45
48614;BME280;34408;51.426;5.444;2022-09-29T01:08:27;99905.38;;;12.23;60.72
48614;BME280;34408;51.426;5.444;2022-09-29T01:10:59;99889.94;;;12.14;60.62
48614;BME280;34408;51.426;5.444;2022-09-29T01:13:28;99900.25;;;12.22;60.36
48614;BME280;34408;51.426;5.444;2022-09-29T01:15:56;99910.22;;;12.21;60.79
48614;BME280;34408;51.426;5.444;2022-09-29T01:18:24;99897.00;;;12.20;60.33
48614;BME280;34408;51.426;5.444;2022-09-29T01:21:00;99899.94;;;12.18;60.30
48614;BME280;34408;51.426;5.444;2022-09-29T01:23:50;99902.09;;;12.16;60.65
48614;BME280;34408;51.426;5.444;2022-09-29T01:26:37;99902.34;;;12.15;60.31
48614;BME280;34408;51.426;5.444;2022-09-29T01:29:30;99887.75;;;12.05;60.49
48614;BME280;34408;51.426;5.444;2022-09-29T01:32:07;99910.72;;;12.13;60.33
48614;BME280;34408;51.426;5.444;2022-09-29T01:34:42;99905.56;;;12.12;60.62
48614;BME280;34408;51.426;5.444;2022-09-29T01:37:20;99907.47;;;12.11;60.37
48614;BME280;34408;51.426;5.444;2022-09-29T01:39:53;99905.56;;;12.12;60.75
48614;BME280;34408;51.426;5.444;2022-09-29T01:42:29;99902.31;;;12.10;60.36
48614;BME280;34408;51.426;5.444;2022-09-29T01:45:03;99904.47;;;12.08;60.65
48614;BME280;34408;51.426;5.444;2022-09-29T01:47:36;99907.66;;;12.04;60.51
48614;BME280;34408;51.426;5.444;2022-09-29T01:50:09;99907.91;;;12.03;60.30
48614;BME280;34408;51.426;5.444;2022-09-29T01:52:41;99913.56;;;12.01;60.42
48614;BME280;34408;51.426;5.444;2022-09-29T01:55:12;99912.75;;;12.01;60.35
48614;BME280;34408;51.426;5.444;2022-09-29T01:57:45;99911.13;;;12.00;60.34
48614;BME280;34408;51.426;5.444;2022-09-29T02:00:17;99906.78;;;11.99;60.61
48614;BME280;34408;51.426;5.444;2022-09-29T02:02:48;99917.56;;;11.99;60.53
48614;BME280;34408;51.426;5.444;2022-09-29T02:05:20;99917.56;;;11.99;60.32
48614;BME280;34408;51.426;5.444;2022-09-29T02:07:49;99910.31;;;11.99;60.11
48614;BME280;34408;51.426;5.444;2022-09-29T02:10:21;99908.69;;;11.98;60.16
48614;BME280;34408;51.426;5.444;2022-09-29T02:12:52;99912.19;;;11.99;60.10
48614;BME280;34408;51.426;5.444;2022-09-29T02:15:25;99908.94;;;11.97;60.42
48614;BME280;34408;51.426;5.444;2022-09-29T02:18:01;99912.69;;;11.96;60.41
48614;BME280;34408;51.426;5.444;2022-09-29T02:20:29;99907.56;;;11.94;60.34
48614;BME280;34408;51.426;5.444;2022-09-29T02:22:57;99912.13;;;11.94;60.48
48614;BME280;34408;51.426;5.444;2022-09-29T02:25:25;99914.00;;;11.93;60.42
48614;BME280;34408;51.426;5.444;2022-09-29T02:27:53;99912.88;;;11.89;60.21
48614;BME280;34408;51.426;5.444;2022-09-29T02:30:24;99911.00;;;11.90;60.27
48614;BME280;34408;51.426;5.444;2022-09-29T02:32:51;99915.59;;;11.89;60.18
48614;BME280;34408;51.426;5.444;2022-09-29T02:35:21;99908.00;;;11.86;60.26
48614;BME280;34408;51.426;5.444;2022-09-29T02:38:01;99910.94;;;11.85;60.09
48614;BME280;34408;51.426;5.444;2022-09-29T02:40:39;99914.47;;;11.85;60.44
48614;BME280;34408;51.426;5.444;2022-09-29T02:43:23;99909.31;;;11.84;60.24
48614;BME280;34408;51.426;5.444;2022-09-29T02:46:03;99906.63;;;11.84;60.17
48614;BME280;34408;51.426;5.444;2022-09-29T02:48:48;99897.09;;;11.76;59.77
48614;BME280;34408;51.426;5.444;2022-09-29T02:51:26;99909.84;;;11.81;60.14
48614;BME280;34408;51.426;5.444;2022-09-29T02:54:04;99906.34;;;11.80;59.87
48614;BME280;34408;51.426;5.444;2022-09-29T02:56:40;99904.13;;;11.77;60.10
48614;BME280;34408;51.426;5.444;2022-09-29T02:59:16;99906.00;;;11.77;59.89
48614;BME280;34408;51.426;5.444;2022-09-29T03:01:48;99908.94;;;11.75;59.90
48614;BME280;34408;51.426;5.444;2022-09-29T03:04:17;99916.19;;;11.74;59.88
48614;BME280;34408;51.426;5.444;2022-09-29T03:06:47;99917.25;;;11.73;60.03
48614;BME280;34408;51.426;5.444;2022-09-29T03:09:14;99906.50;;;11.73;59.94
48614;BME280;34408;51.426;5.444;2022-09-29T03:11:42;99922.91;;;11.72;59.75
48614;BME280;34408;51.426;5.444;2022-09-29T03:14:10;99924.78;;;11.71;59.78
48614;BME280;34408;51.426;5.444;2022-09-29T03:16:38;99913.44;;;11.69;59.76
48614;BME280;34408;51.426;5.444;2022-09-29T03:19:06;99916.94;;;11.70;59.87
48614;BME280;34408;51.426;5.444;2022-09-29T03:21:34;99912.63;;;11.69;60.02
48614;BME280;34408;51.426;5.444;2022-09-29T03:24:03;99916.38;;;11.68;59.63
48614;BME280;34408;51.426;5.444;2022-09-29T03:26:31;99918.28;;;11.67;59.69
48614;BME280;34408;51.426;5.444;2022-09-29T03:28:59;99919.34;;;11.66;59.63
48614;BME280;34408;51.426;5.444;2022-09-29T03:31:27;99912.50;;;11.59;59.62
48614;BME280;34408;51.426;5.444;2022-09-29T03:33:55;99916.06;;;11.64;59.54
48614;BME280;34408;51.426;5.444;2022-09-29T03:36:23;99915.81;;;11.66;59.56
48614;BME280;34408;51.426;5.444;2022-09-29T03:38:50;99916.91;;;11.65;59.59
48614;BME280;34408;51.426;5.444;2022-09-29T03:41:20;99911.75;;;11.63;59.33
48614;BME280;34408;51.426;5.444;2022-09-29T03:43:47;99917.97;;;11.64;59.42
48614;BME280;34408;51.426;5.444;2022-09-29T03:46:15;99914.69;;;11.62;59.52
48614;BME280;34408;51.426;5.444;2022-09-29T03:48:44;99915.78;;;11.61;59.35
48614;BME280;34408;51.426;5.444;2022-09-29T03:51:11;99916.28;;;11.58;59.52
48614;BME280;34408;51.426;5.444;2022-09-29T03:53:39;99916.28;;;11.58;59.42
48614;BME280;34408;51.426;5.444;2022-09-29T03:56:07;99920.84;;;11.57;59.53
48614;BME280;34408;51.426;5.444;2022-09-29T03:58:37;99917.59;;;11.55;59.29
48614;BME280;34408;51.426;5.444;2022-09-29T04:01:04;99921.34;;;11.54;59.41
48614;BME280;34408;51.426;5.444;2022-09-29T04:03:32;99923.22;;;11.54;59.62
48614;BME280;34408;51.426;5.444;2022-09-29T04:06:00;99927.78;;;11.53;59.33
48614;BME280;34408;51.426;5.444;2022-09-29T04:08:28;99922.91;;;11.50;59.08
48614;BME280;34408;51.426;5.444;2022-09-29T04:10:56;99927.47;;;11.50;59.25
48614;BME280;34408;51.426;5.444;2022-09-29T04:13:24;99921.53;;;11.48;58.97
48614;BME280;34408;51.426;5.444;2022-09-29T04:15:56;99936.03;;;11.47;59.20
48614;BME280;34408;51.426;5.444;2022-09-29T04:18:24;99926.78;;;11.37;59.12
48614;BME280;34408;51.426;5.444;2022-09-29T04:20:52;99935.47;;;11.45;58.81
48614;BME280;34408;51.426;5.444;2022-09-29T04:23:20;99937.34;;;11.44;59.03
48614;BME280;34408;51.426;5.444;2022-09-29T04:25:48;99936.78;;;11.42;59.11
48614;BME280;34408;51.426;5.444;2022-09-29T04:28:16;99933.28;;;11.41;58.98
48614;BME280;34408;51.426;5.444;2022-09-29T04:30:44;99936.22;;;11.40;59.04
48614;BME280;34408;51.426;5.444;2022-09-29T04:33:13;99941.84;;;11.38;59.00
48614;BME280;34408;51.426;5.444;2022-09-29T04:35:41;99940.22;;;11.37;58.92
48614;BME280;34408;51.426;5.444;2022-09-29T04:38:09;99940.47;;;11.36;59.12
48614;BME280;34408;51.426;5.444;2022-09-29T04:40:37;99940.72;;;11.34;58.97
48614;BME280;34408;51.426;5.444;2022-09-29T04:43:05;99945.28;;;11.34;58.92
48614;BME280;34408;51.426;5.444;2022-09-29T04:45:32;99953.38;;;11.34;58.83
48614;BME280;34408;51.426;5.444;2022-09-29T04:48:00;99957.94;;;11.33;58.66
48614;BME280;34408;51.426;5.444;2022-09-29T04:50:29;99951.97;;;11.31;58.61
48614;BME280;34408;51.426;5.444;2022-09-29T04:52:57;99954.91;;;11.30;58.84
48614;BME280;34408;51.426;5.444;2022-09-29T04:55:26;99954.09;;;11.29;58.56
48614;BME280;34408;51.426;5.444;2022-09-29T04:57:54;99956.22;;;11.27;58.73
48614;BME280;34408;51.426;5.444;2022-09-29T05:00:22;99958.09;;;11.27;58.82
48614;BME280;34408;51.426;5.444;2022-09-29T05:02:50;99952.66;;;11.22;58.59
48614;BME280;34408;51.426;5.444;2022-09-29T05:05:17;99957.78;;;11.23;58.75
48614;BME280;34408;51.426;5.444;2022-09-29T05:07:46;99962.34;;;11.23;58.64
48614;BME280;34408;51.426;5.444;2022-09-29T05:10:15;99963.66;;;11.20;58.64
48614;BME280;34408;51.426;5.444;2022-09-29T05:12:46;99965.53;;;11.20;58.48
48614;BME280;34408;51.426;5.444;2022-09-29T05:15:15;99962.03;;;11.19;58.55
48614;BME280;34408;51.426;5.444;2022-09-29T05:17:49;99962.28;;;11.18;58.46
48614;BME280;34408;51.426;5.444;2022-09-29T05:20:16;99967.66;;;11.18;58.60
48614;BME280;34408;51.426;5.444;2022-09-29T05:22:44;99968.97;;;11.15;58.50
48614;BME280;34408;51.426;5.444;2022-09-29T05:25:13;99972.72;;;11.14;58.54
48614;BME280;34408;51.426;5.444;2022-09-29T05:27:41;99972.97;;;11.13;58.57
48614;BME280;34408;51.426;5.444;2022-09-29T05:30:09;99982.91;;;11.12;58.45
48614;BME280;34408;51.426;5.444;2022-09-29T05:32:37;99981.28;;;11.11;58.37
48614;BME280;34408;51.426;5.444;2022-09-29T05:35:06;99982.34;;;11.10;58.70
48614;BME280;34408;51.426;5.444;2022-09-29T05:37:34;99987.16;;;11.08;58.54
48614;BME280;34408;51.426;5.444;2022-09-29T05:40:02;99994.66;;;11.06;58.56
48614;BME280;34408;51.426;5.444;2022-09-29T05:42:31;99989.50;;;11.04;58.60
48614;BME280;34408;51.426;5.444;2022-09-29T05:44:59;99987.88;;;11.03;58.67
48614;BME280;34408;51.426;5.444;2022-09-29T05:47:27;99993.25;;;11.03;58.59
48614;BME280;34408;51.426;5.444;2022-09-29T05:49:54;99998.66;;;11.03;58.50
48614;BME280;34408;51.426;5.444;2022-09-29T05:52:22;99993.50;;;11.02;58.65
48614;BME280;34408;51.426;5.444;2022-09-29T05:54:50;100001.56;;;11.02;58.59
48614;BME280;34408;51.426;5.444;2022-09-29T05:57:18;99999.38;;;10.99;58.64
48614;BME280;34408;51.426;5.444;2022-09-29T05:59:47;99999.63;;;10.97;58.81
48614;BME280;34408;51.426;5.444;2022-09-29T06:02:15;100007.69;;;10.97;58.64
48614;BME280;34408;51.426;5.444;2022-09-29T06:04:44;100016.56;;;10.98;58.81
48614;BME280;34408;51.426;5.444;2022-09-29T06:07:12;100009.81;;;10.95;58.82
48614;BME280;34408;51.426;5.444;2022-09-29T06:09:40;100007.38;;;10.94;58.64
48614;BME280;34408;51.426;5.444;2022-09-29T06:12:07;100007.59;;;10.92;58.86
48614;BME280;34408;51.426;5.444;2022-09-29T06:14:35;100014.03;;;10.91;58.76
48614;BME280;34408;51.426;5.444;2022-09-29T06:17:04;100017.31;;;10.93;58.94
48614;BME280;34408;51.426;5.444;2022-09-29T06:19:33;100019.19;;;10.93;58.97
48614;BME280;34408;51.426;5.444;2022-09-29T06:22:01;100018.38;;;10.92;58.72
48614;BME280;34408;51.426;5.444;2022-09-29T06:24:29;100025.63;;;10.92;59.03
48614;BME280;34408;51.426;5.444;2022-09-29T06:26:57;100022.34;;;10.90;59.03
48614;BME280;34408;51.426;5.444;2022-09-29T06:29:25;100023.41;;;10.89;59.14
48614;BME280;34408;51.426;5.444;2022-09-29T06:31:52;100022.09;;;10.91;58.86
48614;BME280;34408;51.426;5.444;2022-09-29T06:34:22;100026.09;;;10.89;59.18
48614;BME280;34408;51.426;5.444;2022-09-29T06:36:51;100031.47;;;10.89;59.23
48614;BME280;34408;51.426;5.444;2022-09-29T06:39:37;100033.09;;;10.90;59.30
48614;BME280;34408;51.426;5.444;2022-09-29T06:42:05;100026.09;;;10.89;59.35
48614;BME280;34408;51.426;5.444;2022-09-29T06:44:32;100036.59;;;10.90;59.47
48614;BME280;34408;51.426;5.444;2022-09-29T06:47:00;100030.56;;;10.83;59.54
48614;BME280;34408;51.426;5.444;2022-09-29T06:49:29;100040.59;;;10.88;59.47
48614;BME280;34408;51.426;5.444;2022-09-29T06:51:57;100045.16;;;10.87;59.61
48614;BME280;34408;51.426;5.444;2022-09-29T06:54:28;100052.75;;;10.90;59.63
48614;BME280;34408;51.426;5.444;2022-09-29T06:56:56;100046.53;;;10.90;59.61
48614;BME280;34408;51.426;5.444;2022-09-29T06:59:24;100041.97;;;10.90;59.88
48614;BME280;34408;51.426;5.444;2022-09-29T07:01:52;100044.44;;;10.92;59.68
48614;BME280;34408;51.426;5.444;2022-09-29T07:04:20;100052.50;;;10.92;59.69
48614;BME280;34408;51.426;5.444;2022-09-29T07:06:50;100045.81;;;10.94;59.72
48614;BME280;34408;51.426;5.444;2022-09-29T07:09:18;100054.69;;;10.95;59.73
48614;BME280;34408;51.426;5.444;2022-09-29T07:11:48;100052.00;;;10.95;59.82
48614;BME280;34408;51.426;5.444;2022-09-29T07:14:18;100050.13;;;10.95;59.74
48614;BME280;34408;51.426;5.444;2022-09-29T07:16:48;100057.97;;;10.97;59.82
48614;BME280;34408;51.426;5.444;2022-09-29T07:19:17;100058.19;;;10.95;59.88
48614;BME280;34408;51.426;5.444;2022-09-29T07:21:46;100061.69;;;10.96;59.86
48614;BME280;34408;51.426;5.444;2022-09-29T07:24:15;100066.03;;;10.97;59.87
48614;BME280;34408;51.426;5.444;2022-09-29T07:26:43;100067.91;;;10.96;59.94
48614;BME280;34408;51.426;5.444;2022-09-29T07:29:11;100072.22;;;10.97;59.99
48614;BME280;34408;51.426;5.444;2022-09-29T07:31:41;100077.09;;;11.00;59.93
48614;BME280;34408;51.426;5.444;2022-09-29T07:34:18;100079.78;;;11.00;60.14
48614;BME280;34408;51.426;5.444;2022-09-29T07:36:46;100080.59;;;11.01;59.84
48614;BME280;34408;51.426;5.444;2022-09-29T07:39:15;100082.47;;;11.00;60.11
48614;BME280;34408;51.426;5.444;2022-09-29T07:41:43;100087.03;;;11.00;60.17
48614;BME280;34408;51.426;5.444;2022-09-29T07:44:11;100085.41;;;10.99;60.17
48614;BME280;34408;51.426;5.444;2022-09-29T07:46:39;100086.81;;;11.01;60.36
48614;BME280;34408;51.426;5.444;2022-09-29T07:49:07;100087.22;;;11.10;60.19
48614;BME280;34408;51.426;5.444;2022-09-29T07:51:34;100085.50;;;11.21;59.85
48614;BME280;34408;51.426;5.444;2022-09-29T07:54:03;100094.06;;;11.34;59.56
48614;BME280;34408;51.426;5.444;2022-09-29T07:56:32;100096.25;;;11.54;58.95
48614;BME280;34408;51.426;5.444;2022-09-29T07:59:00;100100.56;;;11.72;58.39
48614;BME280;34408;51.426;5.444;2022-09-29T08:01:29;100101.59;;;11.88;58.16
48614;BME280;34408;51.426;5.444;2022-09-29T08:03:57;100100.19;;;12.02;57.71
48614;BME280;34408;51.426;5.444;2022-09-29T08:06:26;100102.22;;;12.17;57.32
48614;BME280;34408;51.426;5.444;2022-09-29T08:08:53;100107.25;;;12.30;56.98
48614;BME280;34408;51.426;5.444;2022-09-29T08:11:32;100105.22;;;12.42;57.06
48614;BME280;34408;51.426;5.444;2022-09-29T08:14:01;100110.47;;;12.54;56.63
48614;BME280;34408;51.426;5.444;2022-09-29T08:16:29;100115.13;;;12.58;56.29
48614;BME280;34408;51.426;5.444;2022-09-29T08:18:57;100115.56;;;12.50;57.02
48614;BME280;34408;51.426;5.444;2022-09-29T08:21:26;100117.06;;;12.41;57.10
48614;BME280;34408;51.426;5.444;2022-09-29T08:23:55;100117.69;;;12.26;58.05
48614;BME280;34408;51.426;5.444;2022-09-29T08:26:22;100127.28;;;12.17;58.11
48614;BME280;34408;51.426;5.444;2022-09-29T08:29:08;100128.81;;;12.08;58.39
48614;BME280;34408;51.426;5.444;2022-09-29T08:31:41;100134.38;;;12.01;58.62
48614;BME280;34408;51.426;5.444;2022-09-29T08:34:09;100129.19;;;11.95;59.01
48614;BME280;34408;51.426;5.444;2022-09-29T08:36:39;100130.16;;;11.89;59.27
48614;BME280;34408;51.426;5.444;2022-09-29T08:39:09;100134.09;;;11.81;59.42
48614;BME280;34408;51.426;5.444;2022-09-29T08:41:49;100131.31;;;11.76;59.81
48614;BME280;34408;51.426;5.444;2022-09-29T08:44:28;100135.53;;;11.72;60.05
48614;BME280;34408;51.426;5.444;2022-09-29T08:47:13;100145.19;;;11.68;60.19
48614;BME280;34408;51.426;5.444;2022-09-29T08:49:46;100133.84;;;11.66;60.60
48614;BME280;34408;51.426;5.444;2022-09-29T08:52:19;100141.03;;;11.60;61.10
48614;BME280;34408;51.426;5.444;2022-09-29T08:54:51;100141.25;;;11.59;61.18
48614;BME280;34408;51.426;5.444;2022-09-29T08:57:20;100135.88;;;11.59;61.35
48614;BME280;34408;51.426;5.444;2022-09-29T08:59:52;100149.09;;;11.60;61.52
48614;BME280;34408;51.426;5.444;2022-09-29T09:02:53;100145.59;;;11.60;61.33
48614;BME280;34408;51.426;5.444;2022-09-29T09:05:36;100152.59;;;11.61;61.15
48614;BME280;34408;51.426;5.444;2022-09-29T09:08:19;100157.16;;;11.60;61.54
48614;BME280;34408;51.426;5.444;2022-09-29T09:10:55;100159.84;;;11.60;61.81
48614;BME280;34408;51.426;5.444;2022-09-29T09:13:46;100159.03;;;11.60;61.99
48614;BME280;34408;51.426;5.444;2022-09-29T09:16:27;100157.16;;;11.60;61.90
48614;BME280;34408;51.426;5.444;2022-09-29T09:19:25;100157.75;;;11.62;62.06
48614;BME280;34408;51.426;5.444;2022-09-29T09:22:02;100163.13;;;11.62;62.38
48614;BME280;34408;51.426;5.444;2022-09-29T09:24:37;100163.94;;;11.63;62.50
48614;BME280;34408;51.426;5.444;2022-09-29T09:27:11;100157.50;;;11.64;62.37
48614;BME280;34408;51.426;5.444;2022-09-29T09:29:43;100166.94;;;11.66;62.57
48614;BME280;34408;51.426;5.444;2022-09-29T09:32:15;100160.50;;;11.67;62.54
48614;BME280;34408;51.426;5.444;2022-09-29T09:34:52;100157.09;;;11.72;62.93
48614;BME280;34408;51.426;5.444;2022-09-29T09:37:31;100159.53;;;11.73;62.76
48614;BME280;34408;51.426;5.444;2022-09-29T09:40:10;100161.72;;;11.77;62.58
48614;BME280;34408;51.426;5.444;2022-09-29T09:42:43;100167.97;;;11.77;62.84
48614;BME280;34408;51.426;5.444;2022-09-29T09:45:16;100169.59;;;11.78;62.89
48614;BME280;34408;51.426;5.444;2022-09-29T09:47:52;100169.34;;;11.80;62.95
48614;BME280;34408;51.426;5.444;2022-09-29T09:50:24;100168.53;;;11.79;63.39
48614;BME280;34408;51.426;5.444;2022-09-29T09:52:55;100169.41;;;11.85;63.85
48614;BME280;34408;51.426;5.444;2022-09-29T09:55:25;100153.44;;;11.78;63.78
48614;BME280;34408;51.426;5.444;2022-09-29T09:58:10;100166.22;;;11.88;63.78
48614;BME280;34408;51.426;5.444;2022-09-29T10:00:46;100162.72;;;11.87;63.78
48614;BME280;34408;51.426;5.444;2022-09-29T10:03:18;100173.56;;;11.92;64.04
48614;BME280;34408;51.426;5.444;2022-09-29T10:05:47;100180.91;;;11.97;64.40
48614;BME280;34408;51.426;5.444;2022-09-29T10:08:20;100174.47;;;11.98;64.55
48614;BME280;34408;51.426;5.444;2022-09-29T10:10:49;100169.63;;;12.00;64.38
48614;BME280;34408;51.426;5.444;2022-09-29T10:13:26;100178.84;;;12.04;64.43
48614;BME280;34408;51.426;5.444;2022-09-29T10:15:57;100175.41;;;12.09;64.28
48614;BME280;34408;51.426;5.444;2022-09-29T10:18:35;100192.16;;;12.11;64.47
48614;BME280;34408;51.426;5.444;2022-09-29T10:21:03;100184.63;;;12.13;64.33
48614;BME280;34408;51.426;5.444;2022-09-29T10:23:49;100182.47;;;12.15;64.29
48614;BME280;34408;51.426;5.444;2022-09-29T10:26:21;100179.28;;;12.18;64.14
48614;BME280;34408;51.426;5.444;2022-09-29T10:28:53;100180.66;;;12.20;64.40
48614;BME280;34408;51.426;5.444;2022-09-29T10:31:24;100184.75;;;12.23;64.18
48614;BME280;34408;51.426;5.444;2022-09-29T10:33:56;100181.56;;;12.26;64.39
48614;BME280;34408;51.426;5.444;2022-09-29T10:36:27;100188.06;;;12.30;64.32
48614;BME280;34408;51.426;5.444;2022-09-29T10:38:55;100192.97;;;12.33;64.53
48614;BME280;34408;51.426;5.444;2022-09-29T10:41:28;100187.31;;;12.34;64.37
48614;BME280;34408;51.426;5.444;2022-09-29T10:44:17;100190.34;;;12.38;64.62
48614;BME280;34408;51.426;5.444;2022-09-29T10:46:49;100189.84;;;12.41;64.64
48614;BME280;34408;51.426;5.444;2022-09-29T10:49:20;100186.63;;;12.44;64.40
48614;BME280;34408;51.426;5.444;2022-09-29T10:51:56;100184.50;;;12.46;63.86
48614;BME280;34408;51.426;5.444;2022-09-29T10:54:27;100178.88;;;12.48;63.77
48614;BME280;34408;51.426;5.444;2022-09-29T10:56:56;100188.59;;;12.49;63.80
48614;BME280;34408;51.426;5.444;2022-09-29T10:59:25;100196.41;;;12.50;63.83
48614;BME280;34408;51.426;5.444;2022-09-29T11:01:56;100190.16;;;12.45;63.46
48614;BME280;34408;51.426;5.444;2022-09-29T11:04:31;100193.22;;;12.53;63.57
48614;BME280;34408;51.426;5.444;2022-09-29T11:07:05;100196.22;;;12.57;63.80
48614;BME280;34408;51.426;5.444;2022-09-29T11:09:38;100199.25;;;12.60;63.52
48614;BME280;34408;51.426;5.444;2022-09-29T11:12:25;100197.69;;;12.64;63.77
48614;BME280;34408;51.426;5.444;2022-09-29T11:14:53;100197.19;;;12.67;63.81
48614;BME280;34408;51.426;5.444;2022-09-29T11:17:23;100198.31;;;12.71;63.85
48614;BME280;34408;51.426;5.444;2022-09-29T11:19:55;100194.78;;;12.71;63.58
48614;BME280;34408;51.426;5.444;2022-09-29T11:25:55;100199.75;;;12.79;63.66
48614;BME280;34408;51.426;5.444;2022-09-29T11:28:48;100197.59;;;12.81;63.91
48614;BME280;34408;51.426;5.444;2022-09-29T11:31:35;100197.09;;;12.84;63.89
48614;BME280;34408;51.426;5.444;2022-09-29T11:34:30;100204.69;;;12.87;63.75
48614;BME280;34408;51.426;5.444;2022-09-29T11:37:14;100192.78;;;12.83;63.71
48614;BME280;34408;51.426;5.444;2022-09-29T11:39:45;100202.03;;;12.92;63.75
48614;BME280;34408;51.426;5.444;2022-09-29T11:42:27;100205.06;;;12.96;63.47
48614;BME280;34408;51.426;5.444;2022-09-29T11:44:58;100202.91;;;12.98;63.97
48614;BME280;34408;51.426;5.444;2022-09-29T11:48:02;100208.63;;;13.01;64.35
48614;BME280;34408;51.426;5.444;2022-09-29T11:50:40;100203.78;;;13.03;63.99
48614;BME280;34408;51.426;5.444;2022-09-29T11:53:22;100205.72;;;13.08;63.91
48614;BME280;34408;51.426;5.444;2022-09-29T11:56:01;100211.16;;;13.13;64.45
48614;BME280;34408;51.426;5.444;2022-09-29T11:58:37;100210.69;;;13.16;65.00
48614;BME280;34408;51.426;5.444;2022-09-29T12:01:21;100204.78;;;13.19;65.11
48614;BME280;34408;51.426;5.444;2022-09-29T12:04:13;100212.13;;;13.24;63.95
48614;BME280;34408;51.426;5.444;2022-09-29T12:06:52;100210.25;;;13.24;63.13
48614;BME280;34408;51.426;5.444;2022-09-29T12:09:37;100219.97;;;13.25;62.27
48614;BME280;34408;51.426;5.444;2022-09-29T12:12:12;100213.75;;;13.25;61.72
48614;BME280;34408;51.426;5.444;2022-09-29T12:15:15;100214.56;;;13.25;62.29
48614;BME280;34408;51.426;5.444;2022-09-29T12:17:46;100215.38;;;13.26;62.49
48614;BME280;34408;51.426;5.444;2022-09-29T12:20:18;100198.31;;;13.20;61.88
48614;BME280;34408;51.426;5.444;2022-09-29T12:22:48;100218.13;;;13.31;62.37
48614;BME280;34408;51.426;5.444;2022-09-29T12:25:22;100213.53;;;13.31;61.98
48614;BME280;34408;51.426;5.444;2022-09-29T12:27:54;100216.81;;;13.33;62.03
48614;BME280;34408;51.426;5.444;2022-09-29T12:30:27;100210.09;;;13.36;61.75
48614;BME280;34408;51.426;5.444;2022-09-29T12:33:00;100207.69;;;13.40;60.66
48614;BME280;34408;51.426;5.444;2022-09-29T12:35:34;100214.72;;;13.41;60.92
48614;BME280;34408;51.426;5.444;2022-09-29T12:38:11;100219.03;;;13.42;60.61
48614;BME280;34408;51.426;5.444;2022-09-29T12:40:48;100211.75;;;13.42;60.54
48614;BME280;34408;51.426;5.444;2022-09-29T12:43:22;100209.63;;;13.44;60.89
48614;BME280;34408;51.426;5.444;2022-09-29T12:45:58;100218.28;;;13.46;60.78
48614;BME280;34408;51.426;5.444;2022-09-29T12:48:44;100212.38;;;13.49;61.11
48614;BME280;34408;51.426;5.444;2022-09-29T12:51:19;100218.88;;;13.53;61.06
48614;BME280;34408;51.426;5.444;2022-09-29T12:54:02;100218.63;;;13.55;60.83
48614;BME280;34408;51.426;5.444;2022-09-29T12:56:42;100218.38;;;13.56;60.70
48614;BME280;34408;51.426;5.444;2022-09-29T12:59:17;100215.16;;;13.59;61.04
48614;BME280;34408;51.426;5.444;2022-09-29T13:01:52;100219.22;;;13.62;61.04
48614;BME280;34408;51.426;5.444;2022-09-29T13:04:44;100218.44;;;13.66;61.66
48614;BME280;34408;51.426;5.444;2022-09-29T13:10:35;100225.22;;;13.69;59.87
48614;BME280;34408;51.426;5.444;2022-09-29T13:13:47;100212.53;;;13.70;60.04
48614;BME280;34408;51.426;5.444;2022-09-29T13:16:33;100215.25;;;13.70;60.20
48614;BME280;34408;51.426;5.444;2022-09-29T13:19:29;100215.78;;;13.72;60.04
48614;BME280;34408;51.426;5.444;2022-09-29T13:22:32;100213.41;;;13.75;59.67
48614;BME280;34408;51.426;5.444;2022-09-29T13:25:11;100220.41;;;13.76;59.68
48614;BME280;34408;51.426;5.444;2022-09-29T13:27:44;100207.47;;;13.78;59.89
48614;BME280;34408;51.426;5.444;2022-09-29T13:30:17;100210.19;;;13.78;60.15